createdAt,value
2022-10-22T00:00:35.411Z,3.12
2022-10-22T00:03:03.196Z,3.47
2022-10-22T00:05:30.706Z,2.75
2022-10-22T00:07:58.163Z,3.25
2022-10-22T00:10:25.824Z,3.97
2022-10-22T00:12:53.377Z,3.40
2022-10-22T00:15:20.813Z,2.55
2022-10-22T00:17:49.673Z,2.67
2022-10-22T00:20:17.103Z,2.30
2022-10-22T00:22:44.615Z,3.35
2022-10-22T00:25:12.341Z,3.20
2022-10-22T00:27:39.935Z,3.00
2022-10-22T00:30:08.965Z,3.12
2022-10-22T00:32:36.719Z,2.87
2022-10-22T00:35:04.776Z,5.30
2022-10-22T00:37:32.200Z,3.00
2022-10-22T00:39:59.889Z,3.80
2022-10-22T00:42:30.259Z,2.62
2022-10-22T00:45:09.823Z,4.45
2022-10-22T00:47:38.014Z,2.72
2022-10-22T00:50:09.237Z,3.37
2022-10-22T00:52:37.001Z,4.53
2022-10-22T00:55:05.422Z,2.22
2022-10-22T00:57:34.491Z,3.05
2022-10-22T01:00:02.233Z,4.05
2022-10-22T01:02:29.658Z,3.72
2022-10-22T01:04:57.063Z,3.05
2022-10-22T01:07:26.150Z,2.35
2022-10-22T01:10:09.415Z,3.35
2022-10-22T01:12:45.105Z,2.65
2022-10-22T01:15:57.647Z,3.37
2022-10-22T01:18:49.391Z,3.33
2022-10-22T01:21:42.449Z,2.58
2022-10-22T01:24:21.599Z,2.58
2022-10-22T01:27:07.745Z,3.30
2022-10-22T01:29:47.014Z,3.20
2022-10-22T01:32:18.205Z,2.75
2022-10-22T01:34:50.210Z,3.33
2022-10-22T01:37:18.743Z,2.47
2022-10-22T01:39:47.252Z,3.42
2022-10-22T01:42:14.871Z,3.42
2022-10-22T01:44:42.306Z,3.20
2022-10-22T01:47:31.619Z,3.85
2022-10-22T01:50:02.909Z,2.83
2022-10-22T01:52:42.046Z,2.65
2022-10-22T01:55:28.889Z,2.95
2022-10-22T01:58:30.145Z,2.17
2022-10-22T02:01:03.744Z,2.40
2022-10-22T02:03:40.472Z,2.50
2022-10-22T02:06:14.217Z,3.53
2022-10-22T02:08:42.371Z,2.78
2022-10-22T02:11:12.314Z,2.60
2022-10-22T02:13:44.368Z,2.75
2022-10-22T02:16:15.707Z,3.67
2022-10-22T02:18:45.535Z,2.67
2022-10-22T02:21:13.490Z,2.58
2022-10-22T02:23:41.035Z,2.83
2022-10-22T02:26:27.187Z,2.97
2022-10-22T02:29:12.168Z,2.70
2022-10-22T02:31:41.073Z,2.17
2022-10-22T02:34:11.761Z,2.78
2022-10-22T02:36:40.664Z,2.97
2022-10-22T02:39:08.492Z,2.62
2022-10-22T02:41:37.789Z,2.83
2022-10-22T02:44:09.105Z,4.12
2022-10-22T02:46:40.385Z,3.00
2022-10-22T02:49:07.783Z,3.45
2022-10-22T02:51:35.170Z,3.65
2022-10-22T02:54:02.853Z,3.05
2022-10-22T02:56:30.316Z,3.20
2022-10-22T02:58:58.099Z,2.95
2022-10-22T03:01:25.869Z,2.72
2022-10-22T03:03:53.324Z,3.05
2022-10-22T03:06:21.293Z,3.25
2022-10-22T03:08:49.052Z,5.12
2022-10-22T03:11:16.482Z,2.58
2022-10-22T03:13:43.918Z,2.62
2022-10-22T03:16:11.613Z,3.72
2022-10-22T03:18:39.000Z,3.35
2022-10-22T03:21:11.469Z,4.03
2022-10-22T03:23:40.979Z,3.15
2022-10-22T03:26:09.091Z,2.65
2022-10-22T03:28:37.268Z,3.45
2022-10-22T03:31:05.001Z,3.40
2022-10-22T03:33:32.466Z,3.20
2022-10-22T03:36:00.734Z,2.75
2022-10-22T03:38:29.006Z,3.50
2022-10-22T03:40:56.443Z,3.42
2022-10-22T03:43:23.818Z,2.62
2022-10-22T03:45:51.458Z,3.22
2022-10-22T03:48:19.969Z,2.67
2022-10-22T03:50:47.367Z,3.35
2022-10-22T03:53:15.037Z,3.28
2022-10-22T03:55:42.446Z,3.33
2022-10-22T03:58:09.882Z,2.62
2022-10-22T04:00:37.759Z,3.67
2022-10-22T04:03:05.452Z,3.37
2022-10-22T04:05:34.100Z,3.30
2022-10-22T04:08:01.708Z,2.08
2022-10-22T04:10:29.556Z,3.65
2022-10-22T04:12:56.979Z,2.75
2022-10-22T04:15:26.891Z,5.43
2022-10-22T04:17:54.860Z,3.35
2022-10-22T04:20:22.266Z,2.50
2022-10-22T04:22:49.744Z,3.33
2022-10-22T04:25:17.430Z,2.53
2022-10-22T04:27:44.798Z,2.53
2022-10-22T04:30:13.224Z,3.05
2022-10-22T04:32:40.987Z,2.65
2022-10-22T04:35:08.609Z,2.92
2022-10-22T04:37:36.224Z,2.55
2022-10-22T04:40:04.557Z,2.67
2022-10-22T04:42:31.979Z,2.40
2022-10-22T04:44:59.386Z,3.22
2022-10-22T04:47:27.242Z,3.15
2022-10-22T04:49:54.644Z,5.70
2022-10-22T04:52:22.042Z,5.93
2022-10-22T04:54:49.688Z,2.85
2022-10-22T04:57:17.094Z,4.37
2022-10-22T04:59:44.486Z,2.33
2022-10-22T05:02:12.210Z,3.58
2022-10-22T05:04:39.697Z,3.97
2022-10-22T05:07:07.064Z,2.62
2022-10-22T05:09:34.794Z,2.62
2022-10-22T05:12:03.258Z,2.35
2022-10-22T05:14:30.694Z,2.90
2022-10-22T05:16:58.497Z,2.78
2022-10-22T05:19:27.788Z,2.97
2022-10-22T05:21:58.005Z,2.35
2022-10-22T05:24:26.689Z,1.67
2022-10-22T05:26:55.823Z,2.87
2022-10-22T05:29:23.550Z,2.78
2022-10-22T05:31:51.282Z,2.75
2022-10-22T05:34:19.039Z,2.47
2022-10-22T05:36:46.565Z,2.85
2022-10-22T05:39:14.257Z,3.08
2022-10-22T05:41:41.781Z,3.58
2022-10-22T05:44:11.613Z,3.10
2022-10-22T05:46:39.633Z,3.33
2022-10-22T05:49:07.993Z,2.85
2022-10-22T05:51:36.610Z,2.50
2022-10-22T05:54:06.567Z,3.50
2022-10-22T05:56:34.600Z,2.67
2022-10-22T06:01:33.126Z,3.33
2022-10-22T06:04:02.168Z,2.80
2022-10-22T06:06:32.985Z,3.17
2022-10-22T06:09:04.223Z,3.25
2022-10-22T06:11:34.313Z,3.95
2022-10-22T06:14:04.068Z,3.33
2022-10-22T06:16:32.180Z,2.62
2022-10-22T06:19:02.112Z,2.65
2022-10-22T06:21:30.483Z,2.95
2022-10-22T06:23:58.923Z,2.62
2022-10-22T06:26:26.617Z,2.65
2022-10-22T06:28:56.057Z,1.95
2022-10-22T06:31:24.754Z,3.70
2022-10-22T06:33:52.214Z,4.65
2022-10-22T06:36:21.887Z,2.47
2022-10-22T06:38:52.537Z,3.37
2022-10-22T06:41:22.167Z,2.85
2022-10-22T06:43:51.997Z,3.40
2022-10-22T06:46:21.281Z,2.97
2022-10-22T06:48:53.502Z,3.55
2022-10-22T06:51:21.298Z,2.42
2022-10-22T06:53:49.157Z,3.15
2022-10-22T06:56:20.030Z,5.55
2022-10-22T06:58:48.748Z,4.28
2022-10-22T07:01:18.251Z,3.67
2022-10-22T07:03:46.140Z,4.97
2022-10-22T07:06:15.054Z,5.00
2022-10-22T07:08:42.803Z,4.78
2022-10-22T07:11:23.423Z,4.87
2022-10-22T07:13:54.439Z,5.65
2022-10-22T07:16:22.339Z,10.68
2022-10-22T07:18:50.264Z,8.35
2022-10-22T07:21:19.284Z,6.70
2022-10-22T07:23:46.856Z,3.37
2022-10-22T07:26:16.180Z,4.57
2022-10-22T07:28:43.989Z,3.42
2022-10-22T07:31:13.252Z,3.60
2022-10-22T07:33:40.680Z,4.00
2022-10-22T07:36:11.187Z,4.55
2022-10-22T07:38:38.611Z,4.22
2022-10-22T07:41:06.172Z,4.03
2022-10-22T07:43:33.941Z,3.55
2022-10-22T07:46:02.842Z,4.65
2022-10-22T07:48:30.465Z,3.78
2022-10-22T07:50:58.399Z,3.95
2022-10-22T07:53:25.842Z,3.05
2022-10-22T07:55:53.536Z,4.45
2022-10-22T07:58:22.234Z,3.58
2022-10-22T08:00:50.751Z,2.95
2022-10-22T08:03:18.706Z,4.03
2022-10-22T08:05:46.182Z,3.22
2022-10-22T08:08:14.770Z,4.80
2022-10-22T08:10:43.072Z,3.72
2022-10-22T08:13:10.658Z,3.95
2022-10-22T08:15:38.580Z,3.72
2022-10-22T08:18:06.345Z,4.95
2022-10-22T08:20:33.844Z,5.00
2022-10-22T08:23:01.385Z,4.18
2022-10-22T08:25:29.067Z,4.72
2022-10-22T08:27:56.524Z,4.47
2022-10-22T08:30:27.782Z,4.62
2022-10-22T08:32:56.026Z,4.35
2022-10-22T08:35:23.534Z,5.72
2022-10-22T08:37:51.010Z,4.72
2022-10-22T08:40:34.673Z,4.70
2022-10-22T08:43:13.577Z,4.68
2022-10-22T08:45:46.421Z,6.03
2022-10-22T08:48:14.495Z,4.55
2022-10-22T08:50:46.909Z,5.15
2022-10-22T08:53:19.408Z,5.12
2022-10-22T08:55:48.132Z,7.10
2022-10-22T08:58:50.455Z,5.45
2022-10-22T09:01:27.535Z,5.95
2022-10-22T09:04:07.429Z,5.10
2022-10-22T09:06:37.283Z,5.60
2022-10-22T09:09:11.966Z,6.22
2022-10-22T09:11:42.434Z,5.37
2022-10-22T09:17:01.700Z,4.80
2022-10-22T09:19:55.482Z,4.87
2022-10-22T09:22:45.277Z,6.03
2022-10-22T09:25:32.020Z,4.18
2022-10-22T09:27:59.805Z,7.95
2022-10-22T09:30:29.940Z,6.37
2022-10-22T09:33:13.190Z,6.70
2022-10-22T09:35:51.198Z,5.10
2022-10-22T09:38:21.442Z,7.10
2022-10-22T09:40:52.088Z,6.10
2022-10-22T09:43:19.998Z,6.43
2022-10-22T09:45:48.518Z,6.53
2022-10-22T09:48:28.421Z,7.22
2022-10-22T09:51:19.589Z,4.95
2022-10-22T09:53:58.345Z,4.05
2022-10-22T09:56:55.645Z,7.37
2022-10-22T09:59:37.016Z,5.97
2022-10-22T10:02:26.637Z,6.80
2022-10-22T10:05:03.767Z,6.12
2022-10-22T10:07:32.413Z,6.78
2022-10-22T10:09:59.950Z,6.70
2022-10-22T10:15:21.060Z,7.97
2022-10-22T10:18:04.117Z,8.20
2022-10-22T10:20:46.812Z,7.32
2022-10-22T10:23:27.024Z,5.25
2022-10-22T10:26:19.387Z,8.20
2022-10-22T10:28:50.125Z,6.07
2022-10-22T10:31:50.027Z,7.60
2022-10-22T10:34:29.785Z,5.47
2022-10-22T10:37:16.303Z,8.70
2022-10-22T10:40:14.664Z,6.15
2022-10-22T10:43:04.290Z,5.47
2022-10-22T10:45:39.665Z,5.75
2022-10-22T10:48:15.250Z,6.57
2022-10-22T10:50:56.118Z,6.95
2022-10-22T10:53:41.060Z,6.22
2022-10-22T10:56:47.807Z,6.57
2022-10-22T11:02:25.967Z,9.32
2022-10-22T11:05:14.565Z,6.68
2022-10-22T11:07:52.124Z,6.37
2022-10-22T11:10:28.324Z,7.15
2022-10-22T11:13:10.931Z,5.87
2022-10-22T11:15:39.955Z,7.43
2022-10-22T11:18:40.376Z,11.45
2022-10-22T11:21:13.472Z,6.72
2022-10-22T11:23:56.413Z,8.52
2022-10-22T11:26:48.562Z,10.15
2022-10-22T11:29:27.223Z,6.93
2022-10-22T11:31:57.487Z,6.97
2022-10-22T11:34:34.259Z,6.37
2022-10-22T11:37:04.150Z,7.28
2022-10-22T11:39:33.758Z,8.00
2022-10-22T11:42:07.279Z,8.27
2022-10-22T11:44:46.717Z,7.95
2022-10-22T11:47:21.132Z,6.95
2022-10-22T11:50:16.037Z,6.20
2022-10-22T11:53:04.899Z,9.30
2022-10-22T11:55:48.445Z,7.35
2022-10-22T11:58:44.009Z,6.60
2022-10-22T12:01:11.595Z,7.05
2022-10-22T12:03:50.734Z,7.60
2022-10-22T12:06:23.156Z,6.80
2022-10-22T12:08:54.160Z,7.95
2022-10-22T12:11:47.816Z,9.75
2022-10-22T12:14:28.094Z,9.48
2022-10-22T12:17:07.694Z,8.05
2022-10-22T12:19:43.612Z,7.32
2022-10-22T12:22:19.120Z,6.45
2022-10-22T12:24:54.766Z,6.78
2022-10-22T12:27:26.077Z,7.47
2022-10-22T12:29:56.287Z,7.07
2022-10-22T12:32:29.335Z,7.70
2022-10-22T12:34:56.992Z,11.57
2022-10-22T12:37:24.371Z,9.43
2022-10-22T12:39:51.867Z,7.87
2022-10-22T12:42:19.589Z,10.85
2022-10-22T12:44:47.015Z,9.05
2022-10-22T12:47:17.011Z,8.18
2022-10-22T12:49:47.809Z,10.07
2022-10-22T12:52:18.749Z,9.50
2022-10-22T12:54:48.313Z,10.00
2022-10-22T12:57:17.725Z,8.63
2022-10-22T12:59:49.964Z,8.70
2022-10-22T13:02:17.817Z,7.25
2022-10-22T13:05:14.612Z,9.00
2022-10-22T13:07:47.063Z,6.65
2022-10-22T13:10:19.324Z,8.63
2022-10-22T13:12:50.755Z,10.52
2022-10-22T13:15:22.589Z,6.95
2022-10-22T13:17:50.413Z,9.25
2022-10-22T13:20:21.626Z,9.45
2022-10-22T13:23:00.548Z,8.35
2022-10-22T13:25:33.711Z,8.55
2022-10-22T13:28:04.052Z,8.77
2022-10-22T13:30:35.081Z,8.05
2022-10-22T13:33:36.079Z,9.80
2022-10-22T13:36:04.215Z,8.07
2022-10-22T13:38:31.728Z,8.90
2022-10-22T13:40:59.503Z,8.00
2022-10-22T13:43:27.547Z,8.02
2022-10-22T13:45:58.470Z,9.43
2022-10-22T13:48:26.849Z,9.13
2022-10-22T13:50:54.670Z,8.60
2022-10-22T13:53:24.446Z,8.85
2022-10-22T13:55:52.197Z,8.70
2022-10-22T13:58:23.890Z,8.88
2022-10-22T14:00:57.086Z,8.10
2022-10-22T14:03:33.356Z,7.62
2022-10-22T14:06:01.472Z,6.80
2022-10-22T14:08:29.633Z,7.25
2022-10-22T14:10:57.116Z,6.60
2022-10-22T14:13:24.545Z,7.90
2022-10-22T14:15:52.941Z,6.05
2022-10-22T14:18:27.316Z,7.75
2022-10-22T14:21:00.102Z,5.85
2022-10-22T14:23:30.009Z,8.10
2022-10-22T14:25:59.316Z,5.20
2022-10-22T14:28:27.138Z,5.68
2022-10-22T14:30:55.006Z,6.47
2022-10-22T14:33:31.914Z,6.53
2022-10-22T14:36:00.679Z,6.30
2022-10-22T14:38:29.107Z,6.78
2022-10-22T14:40:57.807Z,6.93
2022-10-22T14:43:27.757Z,8.48
2022-10-22T14:45:55.534Z,6.28
2022-10-22T14:48:23.974Z,7.57
2022-10-22T14:50:51.692Z,5.35
2022-10-22T14:53:19.484Z,8.30
2022-10-22T14:55:48.991Z,5.53
2022-10-22T14:58:16.479Z,6.20
2022-10-22T15:00:44.390Z,7.85
2022-10-22T15:03:11.983Z,6.15
2022-10-22T15:05:45.796Z,7.25
2022-10-22T15:08:14.547Z,5.72
2022-10-22T15:10:42.506Z,6.68
2022-10-22T15:13:10.059Z,7.70
2022-10-22T15:15:41.243Z,7.32
2022-10-22T15:18:08.847Z,6.95
2022-10-22T15:20:36.342Z,5.72
2022-10-22T15:23:04.162Z,6.22
2022-10-22T15:25:31.790Z,7.45
2022-10-22T15:28:03.415Z,6.32
2022-10-22T15:30:37.143Z,6.37
2022-10-22T15:33:04.780Z,7.00
2022-10-22T15:35:32.367Z,7.37
2022-10-22T15:38:00.233Z,6.90
2022-10-22T15:40:27.711Z,7.62
2022-10-22T15:42:55.268Z,6.65
2022-10-22T15:45:25.013Z,5.65
2022-10-22T15:47:52.556Z,5.37
2022-10-22T15:50:20.010Z,7.47
2022-10-22T15:52:47.975Z,7.03
2022-10-22T15:55:15.777Z,7.37
2022-10-22T15:57:44.046Z,9.05
2022-10-22T16:00:12.717Z,9.88
2022-10-22T16:02:40.313Z,8.32
2022-10-22T16:05:08.447Z,6.15
2022-10-22T16:07:35.933Z,7.22
2022-10-22T16:10:04.359Z,7.22
2022-10-22T16:12:32.024Z,12.45
2022-10-22T16:14:59.466Z,10.45
2022-10-22T16:17:26.903Z,10.45
2022-10-22T16:19:54.704Z,8.57
2022-10-22T16:22:22.266Z,7.07
2022-10-22T16:24:49.670Z,8.68
2022-10-22T16:27:17.573Z,8.10
2022-10-22T16:29:45.156Z,7.72
2022-10-22T16:32:13.305Z,9.88
2022-10-22T16:34:42.232Z,9.00
2022-10-22T16:37:12.617Z,7.57
2022-10-22T16:39:40.025Z,7.90
2022-10-22T16:42:07.742Z,7.05
2022-10-22T16:44:35.236Z,8.82
2022-10-22T16:47:02.706Z,8.20
2022-10-22T16:49:30.576Z,10.30
2022-10-22T16:51:58.274Z,10.75
2022-10-22T16:54:26.335Z,8.45
2022-10-22T16:56:54.110Z,9.07
2022-10-22T16:59:21.573Z,7.05
2022-10-22T17:01:49.115Z,6.62
2022-10-22T17:04:17.533Z,8.50
2022-10-22T17:06:45.122Z,8.00
2022-10-22T17:09:13.598Z,7.70
2022-10-22T17:11:42.688Z,7.97
2022-10-22T17:14:11.984Z,9.50
2022-10-22T17:16:39.477Z,9.48
2022-10-22T17:19:07.308Z,10.43
2022-10-22T17:21:35.024Z,6.43
2022-10-22T17:24:02.673Z,7.97
2022-10-22T17:26:33.241Z,8.40
2022-10-22T17:29:00.933Z,10.60
2022-10-22T17:31:32.683Z,6.75
2022-10-22T17:34:00.614Z,6.62
2022-10-22T17:36:31.790Z,9.13
2022-10-22T17:39:05.357Z,7.12
2022-10-22T17:41:35.381Z,7.20
2022-10-22T17:44:05.407Z,9.02
2022-10-22T17:46:33.043Z,10.05
2022-10-22T17:49:04.013Z,9.45
2022-10-22T17:51:32.055Z,9.23
2022-10-22T17:53:59.720Z,7.80
2022-10-22T17:56:29.981Z,8.68
2022-10-22T17:58:59.815Z,5.10
2022-10-22T18:01:31.642Z,8.30
2022-10-22T18:04:01.812Z,7.07
2022-10-22T18:06:30.127Z,8.48
2022-10-22T18:08:57.707Z,8.38
2022-10-22T18:11:27.192Z,10.18
2022-10-22T18:13:56.746Z,10.70
2022-10-22T18:16:25.133Z,7.80
2022-10-22T18:18:56.889Z,7.78
2022-10-22T18:21:27.818Z,7.50
2022-10-22T18:23:57.124Z,6.57
2022-10-22T18:26:26.875Z,7.47
2022-10-22T18:28:56.894Z,6.68
2022-10-22T18:31:25.877Z,5.47
2022-10-22T18:36:27.669Z,9.50
2022-10-22T18:38:57.507Z,8.30
2022-10-22T18:41:26.088Z,6.90
2022-10-22T18:43:56.079Z,6.97
2022-10-22T18:46:24.223Z,6.05
2022-10-22T18:48:58.828Z,8.70
2022-10-22T18:54:05.758Z,18.17
2022-10-22T18:56:47.145Z,13.38
2022-10-22T18:59:23.050Z,9.10
2022-10-22T19:01:57.570Z,10.65
2022-10-22T19:04:31.004Z,11.05
2022-10-22T19:07:05.579Z,12.65
2022-10-22T19:09:33.133Z,8.15
2022-10-22T19:12:01.099Z,8.55
2022-10-22T19:14:28.720Z,7.25
2022-10-22T19:16:56.348Z,8.77
2022-10-22T19:19:24.613Z,9.30
2022-10-22T19:21:52.211Z,9.95
2022-10-22T19:24:20.339Z,9.70
2022-10-22T19:26:48.962Z,10.00
2022-10-22T19:29:18.151Z,12.20
2022-10-22T19:31:47.660Z,9.00
2022-10-22T19:34:15.533Z,7.47
2022-10-22T19:36:43.137Z,10.05
2022-10-22T19:39:10.860Z,26.60
2022-10-22T19:41:38.937Z,15.68
2022-10-22T19:44:06.517Z,8.70
2022-10-22T19:46:34.215Z,8.38
2022-10-22T19:49:02.789Z,9.15
2022-10-22T19:51:31.344Z,8.38
2022-10-22T19:54:04.892Z,8.50
2022-10-22T19:56:33.841Z,7.93
2022-10-22T19:59:02.733Z,10.45
2022-10-22T20:01:31.897Z,7.82
2022-10-22T20:04:01.457Z,10.07
2022-10-22T20:06:29.728Z,11.20
2022-10-22T20:08:58.179Z,8.40
2022-10-22T20:11:28.728Z,9.40
2022-10-22T20:13:57.262Z,8.98
2022-10-22T20:16:28.649Z,7.00
2022-10-22T20:19:01.547Z,6.03
2022-10-22T20:21:29.227Z,6.85
2022-10-22T20:23:57.769Z,5.93
2022-10-22T20:26:28.187Z,7.35
2022-10-22T20:28:57.646Z,6.68
2022-10-22T20:31:28.569Z,8.35
2022-10-22T20:34:01.167Z,6.68
2022-10-22T20:36:30.478Z,7.07
2022-10-22T20:39:03.372Z,6.60
2022-10-22T20:41:33.989Z,7.12
2022-10-22T20:44:01.642Z,6.28
2022-10-22T20:46:31.100Z,7.45
2022-10-22T20:49:10.087Z,5.60
2022-10-22T20:51:38.118Z,5.32
2022-10-22T20:54:07.545Z,6.03
2022-10-22T20:56:36.051Z,9.55
2022-10-22T20:59:04.714Z,9.88
2022-10-22T21:01:40.369Z,6.53
2022-10-22T21:04:08.868Z,7.50
2022-10-22T21:06:38.291Z,6.05
2022-10-22T21:09:11.069Z,6.10
2022-10-22T21:11:40.263Z,6.12
2022-10-22T21:14:09.267Z,5.68
2022-10-22T21:16:40.920Z,8.20
2022-10-22T21:19:08.824Z,6.80
2022-10-22T21:21:36.261Z,8.52
2022-10-22T21:24:03.955Z,8.70
2022-10-22T21:26:31.779Z,6.53
2022-10-22T21:28:59.243Z,7.20
2022-10-22T21:31:27.845Z,5.65
2022-10-22T21:33:55.666Z,5.72
2022-10-22T21:36:25.026Z,7.25
2022-10-22T21:38:52.855Z,6.35
2022-10-22T21:41:22.559Z,6.57
2022-10-22T21:43:50.401Z,5.85
2022-10-22T21:46:20.340Z,7.18
2022-10-22T21:48:52.833Z,7.47
2022-10-22T21:51:21.010Z,7.72
2022-10-22T21:53:49.027Z,6.50
2022-10-22T21:56:19.155Z,8.30
2022-10-22T21:58:46.937Z,7.43
2022-10-22T22:01:14.966Z,6.18
2022-10-22T22:03:44.491Z,5.10
2022-10-22T22:06:12.486Z,8.35
2022-10-22T22:08:40.423Z,5.68
2022-10-22T22:11:09.336Z,7.25
2022-10-22T22:13:37.171Z,6.80
2022-10-22T22:16:07.967Z,8.43
2022-10-22T22:18:36.219Z,6.70
2022-10-22T22:21:09.010Z,4.97
2022-10-22T22:23:38.531Z,7.22
2022-10-22T22:26:06.434Z,7.00
2022-10-22T22:28:34.163Z,7.03
2022-10-22T22:31:02.727Z,6.30
2022-10-22T22:33:30.133Z,6.45
2022-10-22T22:36:00.367Z,7.65
2022-10-22T22:38:29.073Z,7.72
2022-10-22T22:40:59.329Z,7.70
2022-10-22T22:43:26.949Z,4.70
2022-10-22T22:46:06.636Z,4.55
2022-10-22T22:48:34.800Z,7.37
2022-10-22T22:51:06.370Z,7.80
2022-10-22T22:53:34.864Z,4.87
2022-10-22T22:56:09.386Z,6.60
2022-10-22T22:58:37.886Z,6.15
2022-10-22T23:01:19.262Z,7.18
2022-10-22T23:03:58.674Z,5.55
2022-10-22T23:06:28.506Z,6.30
2022-10-22T23:08:56.989Z,6.78
2022-10-22T23:11:26.112Z,6.57
2022-10-22T23:13:59.548Z,5.25
2022-10-22T23:16:29.124Z,6.95
2022-10-22T23:18:57.685Z,7.03
2022-10-22T23:21:27.246Z,9.48
2022-10-22T23:23:57.446Z,7.60
2022-10-22T23:26:28.743Z,4.80
2022-10-22T23:29:01.003Z,7.50
2022-10-22T23:31:28.770Z,7.43
2022-10-22T23:33:57.392Z,5.50
2022-10-22T23:36:24.830Z,5.45
2022-10-22T23:38:52.576Z,8.65
2022-10-22T23:41:21.004Z,6.93
2022-10-22T23:43:50.133Z,8.38
2022-10-22T23:46:17.914Z,5.50
2022-10-22T23:48:45.685Z,5.12
2022-10-22T23:51:15.501Z,10.13
2022-10-22T23:53:44.310Z,7.32
2022-10-22T23:56:16.592Z,8.02
2022-10-22T23:58:44.958Z,6.53
